createdAt,value
2023-04-25T00:00:11.449Z,76.18
2023-04-25T00:03:02.862Z,79.76
2023-04-25T00:05:31.714Z,81.65
2023-04-25T00:08:00.172Z,82.06
2023-04-25T00:10:28.433Z,81.80
2023-04-25T00:12:56.710Z,81.65
2023-04-25T00:15:25.606Z,81.77
2023-04-25T00:17:54.158Z,80.73
2023-04-25T00:20:23.175Z,80.70
2023-04-25T00:22:53.914Z,79.50
2023-04-25T00:25:22.082Z,80.04
2023-04-25T00:27:50.477Z,82.44
2023-04-25T00:30:18.637Z,83.71
2023-04-25T00:32:47.177Z,81.74
2023-04-25T00:35:15.811Z,81.06
2023-04-25T00:37:43.983Z,81.56
2023-04-25T00:40:12.560Z,82.80
2023-04-25T00:42:42.659Z,83.56
2023-04-25T00:45:15.376Z,83.82
2023-04-25T00:47:44.409Z,83.53
2023-04-25T00:50:13.640Z,83.22
2023-04-25T00:52:44.267Z,82.63
2023-04-25T00:55:13.775Z,83.15
2023-04-25T00:57:42.672Z,83.41
2023-04-25T01:00:15.261Z,82.88
2023-04-25T01:02:43.998Z,81.93
2023-04-25T01:05:13.327Z,81.71
2023-04-25T01:07:42.014Z,81.72
2023-04-25T01:10:11.009Z,82.34
2023-04-25T01:12:39.284Z,83.09
2023-04-25T01:15:08.158Z,83.20
2023-04-25T01:17:36.940Z,82.78
2023-04-25T01:20:06.144Z,82.43
2023-04-25T01:22:34.733Z,82.34
2023-04-25T01:25:03.848Z,82.84
2023-04-25T01:27:33.033Z,84.60
2023-04-25T01:30:06.777Z,84.64
2023-04-25T01:32:39.739Z,84.66
2023-04-25T01:35:13.009Z,84.65
2023-04-25T01:37:42.922Z,85.29
2023-04-25T01:40:13.970Z,84.92
2023-04-25T01:42:43.357Z,84.86
2023-04-25T01:45:13.048Z,84.20
2023-04-25T01:47:42.727Z,83.10
2023-04-25T01:50:12.601Z,82.19
2023-04-25T01:52:41.135Z,81.80
2023-04-25T01:55:10.327Z,81.71
2023-04-25T01:57:41.522Z,81.30
2023-04-25T02:00:11.034Z,81.26
2023-04-25T02:02:42.303Z,80.92
2023-04-25T02:05:23.036Z,80.52
2023-04-25T02:07:51.213Z,80.28
2023-04-25T02:10:19.499Z,79.52
2023-04-25T02:13:08.030Z,79.80
2023-04-25T02:15:59.747Z,80.86
2023-04-25T02:18:28.051Z,80.29
2023-04-25T02:20:56.618Z,79.79
2023-04-25T02:23:24.755Z,80.17
2023-04-25T02:25:53.583Z,80.21
2023-04-25T02:28:21.956Z,79.68
2023-04-25T02:30:49.973Z,79.54
2023-04-25T02:33:18.304Z,79.86
2023-04-25T02:35:46.545Z,79.99
2023-04-25T02:38:14.977Z,80.27
2023-04-25T02:40:43.239Z,79.89
2023-04-25T02:43:11.568Z,79.72
2023-04-25T02:45:39.874Z,79.67
2023-04-25T02:48:08.287Z,79.28
2023-04-25T02:50:36.441Z,78.96
2023-04-25T02:53:04.685Z,79.01
2023-04-25T02:55:38.311Z,79.24
2023-04-25T02:58:06.904Z,79.20
2023-04-25T03:00:41.735Z,78.64
2023-04-25T03:03:10.289Z,79.09
2023-04-25T03:05:38.731Z,79.30
2023-04-25T03:08:07.165Z,79.67
2023-04-25T03:10:35.852Z,80.03
2023-04-25T03:13:06.631Z,79.29
2023-04-25T03:15:37.212Z,78.35
2023-04-25T03:18:05.642Z,79.26
2023-04-25T03:20:33.782Z,79.75
2023-04-25T03:23:02.031Z,81.10
2023-04-25T03:25:31.012Z,81.25
2023-04-25T03:27:59.201Z,80.33
2023-04-25T03:30:27.902Z,79.58
2023-04-25T03:32:56.540Z,80.70
2023-04-25T03:35:25.929Z,82.36
2023-04-25T03:37:54.771Z,82.42
2023-04-25T03:40:29.182Z,82.67
2023-04-25T03:43:36.268Z,83.29
2023-04-25T03:46:07.029Z,83.08
2023-04-25T03:48:35.394Z,82.82
2023-04-25T03:51:03.860Z,81.42
2023-04-25T03:53:32.540Z,79.82
2023-04-25T03:56:23.740Z,79.78
2023-04-25T03:58:58.069Z,80.42
2023-04-25T04:01:27.376Z,81.15
2023-04-25T04:03:56.442Z,81.98
2023-04-25T04:06:26.791Z,81.38
2023-04-25T04:09:02.723Z,81.09
2023-04-25T04:11:33.584Z,80.64
2023-04-25T04:14:01.767Z,81.02
2023-04-25T04:16:31.451Z,80.92
2023-04-25T04:19:00.882Z,81.07
2023-04-25T04:21:29.453Z,80.96
2023-04-25T04:23:58.896Z,81.30
2023-04-25T04:26:27.950Z,80.03
2023-04-25T04:29:08.150Z,79.96
2023-04-25T04:31:56.784Z,78.99
2023-04-25T04:34:26.988Z,77.48
2023-04-25T04:36:56.170Z,77.96
2023-04-25T04:39:24.434Z,77.00
2023-04-25T04:42:10.242Z,76.52
2023-04-25T04:44:56.131Z,75.51
2023-04-25T04:47:44.179Z,77.09
2023-04-25T04:50:33.807Z,78.80
2023-04-25T04:53:24.479Z,77.93
2023-04-25T04:56:26.460Z,77.01
2023-04-25T04:58:54.682Z,77.65
2023-04-25T05:01:31.777Z,77.56
2023-04-25T05:04:22.911Z,75.84
2023-04-25T05:07:14.287Z,75.34
2023-04-25T05:10:03.146Z,75.54
2023-04-25T05:12:49.858Z,74.89
2023-04-25T05:15:36.730Z,73.64
2023-04-25T05:18:23.933Z,72.94
2023-04-25T05:21:07.110Z,72.50
2023-04-25T05:23:55.147Z,72.50
2023-04-25T05:26:42.189Z,71.11
2023-04-25T05:29:36.457Z,70.46
2023-04-25T05:32:23.614Z,70.28
2023-04-25T05:34:52.854Z,70.07
2023-04-25T05:37:27.795Z,70.49
2023-04-25T05:40:08.060Z,71.16
2023-04-25T05:42:54.758Z,70.91
2023-04-25T05:45:29.178Z,70.94
2023-04-25T05:48:06.298Z,70.86
2023-04-25T05:50:46.012Z,71.24
2023-04-25T05:53:43.344Z,71.19
2023-04-25T05:56:11.942Z,71.26
2023-04-25T05:58:40.319Z,71.09
2023-04-25T06:01:10.135Z,71.03
2023-04-25T06:03:39.689Z,71.56
2023-04-25T06:06:08.388Z,72.41
2023-04-25T06:08:36.560Z,71.61
2023-04-25T06:11:05.898Z,71.44
2023-04-25T06:13:34.247Z,71.40
2023-04-25T06:16:02.876Z,70.96
2023-04-25T06:18:31.441Z,71.00
2023-04-25T06:20:59.833Z,71.07
2023-04-25T06:23:29.117Z,73.12
2023-04-25T06:26:08.375Z,73.70
2023-04-25T06:28:38.350Z,74.12
2023-04-25T06:31:06.882Z,73.59
2023-04-25T06:33:35.202Z,73.77
2023-04-25T06:36:04.522Z,73.19
2023-04-25T06:38:33.312Z,74.08
2023-04-25T06:41:01.469Z,74.53
2023-04-25T06:43:34.386Z,74.10
2023-04-25T06:46:05.171Z,73.24
2023-04-25T06:48:34.913Z,72.21
2023-04-25T06:51:03.453Z,71.98
2023-04-25T06:53:31.794Z,71.28
2023-04-25T06:56:02.365Z,70.82
2023-04-25T06:58:45.371Z,70.74
2023-04-25T07:01:18.444Z,69.87
2023-04-25T07:03:46.776Z,69.76
2023-04-25T07:06:18.546Z,69.48
2023-04-25T07:08:46.961Z,68.68
2023-04-25T07:11:15.510Z,67.84
2023-04-25T07:13:45.778Z,67.71
2023-04-25T07:16:13.984Z,67.51
2023-04-25T07:18:42.690Z,66.31
2023-04-25T07:21:11.260Z,65.09
2023-04-25T07:23:41.924Z,64.98
2023-04-25T07:26:13.772Z,64.46
2023-04-25T07:28:53.410Z,64.20
2023-04-25T07:31:23.060Z,64.72
2023-04-25T07:33:51.312Z,65.99
2023-04-25T07:36:19.384Z,65.39
2023-04-25T07:38:47.669Z,65.61
2023-04-25T07:41:15.677Z,67.04
2023-04-25T07:43:44.400Z,68.77
2023-04-25T07:46:12.562Z,70.00
2023-04-25T07:48:40.739Z,73.61
2023-04-25T07:51:08.995Z,73.04
2023-04-25T07:53:38.768Z,74.83
2023-04-25T07:56:10.374Z,73.40
2023-04-25T07:58:40.299Z,72.00
2023-04-25T08:01:10.522Z,72.48
2023-04-25T08:03:39.079Z,73.34
2023-04-25T08:06:11.404Z,73.92
2023-04-25T08:08:50.006Z,73.13
2023-04-25T08:11:20.106Z,72.67
2023-04-25T08:13:48.376Z,70.95
2023-04-25T08:16:20.083Z,70.16
2023-04-25T08:18:48.426Z,69.20
2023-04-25T08:21:16.465Z,68.61
2023-04-25T08:23:45.991Z,70.61
2023-04-25T08:26:21.439Z,69.22
2023-04-25T08:28:49.679Z,66.82
2023-04-25T08:31:18.847Z,67.55
2023-04-25T08:34:01.706Z,66.95
2023-04-25T08:36:40.565Z,66.14
2023-04-25T08:39:38.387Z,65.41
2023-04-25T08:42:25.748Z,63.99
2023-04-25T08:44:56.061Z,64.00
2023-04-25T08:47:29.630Z,65.63
2023-04-25T08:50:00.918Z,65.27
2023-04-25T08:52:33.743Z,65.08
2023-04-25T08:55:03.818Z,62.14
2023-04-25T08:57:32.829Z,63.00
2023-04-25T09:00:02.191Z,64.26
2023-04-25T09:02:31.380Z,62.98
2023-04-25T09:05:00.422Z,63.65
2023-04-25T09:07:29.682Z,60.97
2023-04-25T09:09:57.730Z,58.73
2023-04-25T09:12:28.517Z,55.46
2023-04-25T09:15:09.603Z,56.68
2023-04-25T09:17:57.683Z,57.70
2023-04-25T09:20:27.735Z,55.02
2023-04-25T09:23:06.480Z,53.23
2023-04-25T09:25:44.076Z,53.72
2023-04-25T09:28:12.109Z,53.88
2023-04-25T09:30:40.758Z,53.01
2023-04-25T09:33:20.144Z,51.91
2023-04-25T09:35:56.312Z,52.03
2023-04-25T09:38:53.905Z,52.37
2023-04-25T09:41:39.771Z,49.38
2023-04-25T09:44:08.115Z,48.37
2023-04-25T09:46:39.444Z,46.55
2023-04-25T09:49:11.124Z,46.75
2023-04-25T09:51:58.162Z,46.48
2023-04-25T09:54:35.536Z,45.57
2023-04-25T09:57:18.687Z,45.48
2023-04-25T09:59:55.095Z,45.22
2023-04-25T10:02:26.436Z,45.73
2023-04-25T10:04:57.729Z,45.78
2023-04-25T10:07:32.118Z,47.20
2023-04-25T10:10:04.670Z,47.13
2023-04-25T10:12:35.029Z,48.27
2023-04-25T10:15:05.726Z,49.48
2023-04-25T10:17:35.326Z,50.98
2023-04-25T10:20:08.772Z,51.84
2023-04-25T10:22:48.554Z,52.66
2023-04-25T10:25:19.940Z,57.21
2023-04-25T10:27:48.061Z,58.75
2023-04-25T10:30:17.037Z,59.86
2023-04-25T10:32:46.948Z,57.59
2023-04-25T10:35:20.667Z,55.86
2023-04-25T10:38:00.932Z,53.70
2023-04-25T10:40:29.244Z,55.01
2023-04-25T10:43:32.508Z,55.05
2023-04-25T10:46:01.891Z,56.42
2023-04-25T10:48:31.545Z,55.82
2023-04-25T10:51:16.523Z,55.32
2023-04-25T10:54:08.287Z,54.28
2023-04-25T10:56:45.186Z,54.83
2023-04-25T10:59:15.788Z,55.61
2023-04-25T11:01:55.811Z,56.05
2023-04-25T11:04:29.728Z,55.96
2023-04-25T11:07:09.190Z,55.39
2023-04-25T11:09:41.195Z,55.41
2023-04-25T11:12:12.770Z,54.12
2023-04-25T11:17:14.393Z,49.72
2023-04-25T11:19:42.964Z,49.15
2023-04-25T11:22:11.752Z,48.53
2023-04-25T11:24:40.372Z,47.82
2023-04-25T11:27:09.532Z,48.91
2023-04-25T11:29:37.605Z,47.53
2023-04-25T11:32:06.334Z,46.36
2023-04-25T11:34:35.072Z,46.25
2023-04-25T11:37:04.119Z,48.02
2023-04-25T11:39:32.130Z,48.76
2023-04-25T11:42:01.865Z,51.45
2023-04-25T11:44:31.360Z,54.51
2023-04-25T11:46:59.548Z,56.34
2023-04-25T11:49:32.514Z,56.96
2023-04-25T11:52:01.101Z,56.46
2023-04-25T11:54:29.262Z,56.04
2023-04-25T11:56:57.797Z,56.84
2023-04-25T11:59:27.525Z,57.66
2023-04-25T12:01:56.034Z,59.10
2023-04-25T12:04:25.827Z,59.15
2023-04-25T12:06:56.436Z,60.08
2023-04-25T12:09:34.963Z,60.70
2023-04-25T12:12:04.215Z,61.61
2023-04-25T12:14:34.549Z,60.94
2023-04-25T12:17:06.315Z,60.08
2023-04-25T12:19:36.806Z,58.28
2023-04-25T12:22:21.271Z,56.42
2023-04-25T12:24:49.328Z,55.20
2023-04-25T12:27:20.237Z,53.64
2023-04-25T12:29:57.353Z,52.76
2023-04-25T12:32:26.226Z,51.31
2023-04-25T12:34:54.478Z,51.27
2023-04-25T12:37:22.680Z,51.71
2023-04-25T12:39:51.677Z,51.78
2023-04-25T12:42:19.955Z,51.33
2023-04-25T12:44:48.008Z,49.87
2023-04-25T12:47:16.431Z,48.67
2023-04-25T12:49:44.400Z,47.98
2023-04-25T12:52:12.573Z,49.43
2023-04-25T12:54:40.758Z,50.09
2023-04-25T12:57:08.996Z,48.96
2023-04-25T12:59:36.986Z,47.40
2023-04-25T13:02:05.843Z,47.38
2023-04-25T13:04:34.582Z,47.65
2023-04-25T13:07:02.905Z,46.91
2023-04-25T13:09:31.194Z,47.14
2023-04-25T13:12:00.006Z,47.71
2023-04-25T13:14:28.022Z,48.02
2023-04-25T13:16:56.751Z,48.81
2023-04-25T13:19:25.018Z,49.27
2023-04-25T13:21:53.045Z,49.60
2023-04-25T13:24:21.153Z,49.64
2023-04-25T13:26:49.165Z,49.02
2023-04-25T13:29:17.386Z,49.43
2023-04-25T13:31:45.518Z,49.40
2023-04-25T13:34:13.775Z,50.15
2023-04-25T13:36:41.996Z,50.29
2023-04-25T13:39:10.183Z,50.43
2023-04-25T13:41:38.597Z,50.44
2023-04-25T13:44:06.633Z,52.68
2023-04-25T13:46:46.478Z,53.70
2023-04-25T13:49:15.855Z,53.84
2023-04-25T13:51:44.157Z,54.76
2023-04-25T13:54:12.714Z,56.09
2023-04-25T13:56:43.450Z,58.32
2023-04-25T13:59:12.483Z,60.03
2023-04-25T14:01:40.707Z,62.22
2023-04-25T14:04:09.652Z,63.97
2023-04-25T14:06:38.008Z,65.65
2023-04-25T14:09:07.823Z,69.45
2023-04-25T14:11:36.367Z,70.55
2023-04-25T14:14:04.612Z,72.30
2023-04-25T14:16:33.292Z,72.28
2023-04-25T14:19:02.151Z,73.34
2023-04-25T14:21:33.590Z,73.32
2023-04-25T14:24:02.201Z,73.45
2023-04-25T14:26:30.265Z,73.30
2023-04-25T14:28:58.293Z,73.81
2023-04-25T14:31:26.441Z,74.11
2023-04-25T14:33:56.979Z,74.10
2023-04-25T14:36:27.768Z,74.67
2023-04-25T14:38:56.266Z,75.03
2023-04-25T14:41:26.049Z,75.44
2023-04-25T14:43:54.522Z,75.29
2023-04-25T14:46:24.497Z,74.41
2023-04-25T14:48:53.197Z,75.06
2023-04-25T14:51:21.826Z,74.56
2023-04-25T14:53:50.117Z,74.20
2023-04-25T14:56:18.686Z,73.80
2023-04-25T14:58:47.286Z,74.12
2023-04-25T15:01:15.538Z,74.28
2023-04-25T15:03:44.384Z,74.09
2023-04-25T15:06:12.731Z,73.85
2023-04-25T15:08:40.984Z,74.49
2023-04-25T15:11:09.208Z,74.28
2023-04-25T15:13:37.946Z,74.68
2023-04-25T15:16:07.188Z,75.05
2023-04-25T15:18:35.362Z,75.34
2023-04-25T15:21:04.409Z,75.08
2023-04-25T15:23:32.583Z,75.20
2023-04-25T15:26:00.680Z,74.98
2023-04-25T15:28:28.817Z,75.10
2023-04-25T15:30:57.102Z,74.77
2023-04-25T15:33:25.170Z,75.37
2023-04-25T15:35:53.617Z,76.52
2023-04-25T15:38:21.735Z,77.35
2023-04-25T15:40:49.801Z,78.53
2023-04-25T15:43:17.966Z,79.46
2023-04-25T15:45:46.219Z,79.09
2023-04-25T15:48:14.388Z,79.67
2023-04-25T15:50:42.692Z,79.95
2023-04-25T15:53:13.422Z,79.61
2023-04-25T15:55:41.726Z,79.30
2023-04-25T15:58:12.748Z,79.24
2023-04-25T16:00:41.834Z,79.07
2023-04-25T16:03:10.973Z,79.57
2023-04-25T16:05:39.634Z,78.37
2023-04-25T16:08:08.317Z,77.79
2023-04-25T16:10:36.901Z,77.97
2023-04-25T16:13:05.160Z,77.64
2023-04-25T16:15:35.454Z,77.59
2023-04-25T16:18:04.306Z,77.64
2023-04-25T16:20:33.002Z,76.81
2023-04-25T16:23:01.503Z,75.98
2023-04-25T16:25:29.722Z,75.88
2023-04-25T16:27:58.189Z,76.34
2023-04-25T16:30:26.423Z,75.99
2023-04-25T16:32:57.241Z,75.52
2023-04-25T16:35:25.998Z,75.69
2023-04-25T16:37:54.063Z,75.99
2023-04-25T16:40:22.290Z,75.98
2023-04-25T16:42:50.500Z,77.38
2023-04-25T16:45:20.484Z,78.24
2023-04-25T16:47:51.797Z,79.49
2023-04-25T16:50:20.763Z,79.93
2023-04-25T16:52:51.387Z,81.11
2023-04-25T16:55:19.792Z,82.20
2023-04-25T16:57:48.032Z,83.97
2023-04-25T17:00:16.913Z,85.52
2023-04-25T17:02:45.230Z,85.55
2023-04-25T17:05:13.649Z,86.41
2023-04-25T17:07:41.746Z,87.40
2023-04-25T17:10:10.923Z,88.05
2023-04-25T17:12:38.990Z,87.73
2023-04-25T17:15:07.870Z,87.35
2023-04-25T17:17:35.938Z,87.56
2023-04-25T17:20:06.867Z,87.17
2023-04-25T17:22:36.348Z,87.18
2023-04-25T17:25:05.423Z,87.20
2023-04-25T17:27:34.440Z,88.37
2023-04-25T17:30:04.148Z,88.00
2023-04-25T17:32:32.252Z,88.65
2023-04-25T17:35:00.469Z,88.64
2023-04-25T17:37:28.847Z,88.24
2023-04-25T17:39:57.980Z,87.59
2023-04-25T17:42:26.343Z,87.58
2023-04-25T17:44:55.749Z,87.55
2023-04-25T17:47:25.069Z,87.34
2023-04-25T17:49:53.339Z,85.21
2023-04-25T17:52:22.094Z,84.23
2023-04-25T17:54:50.223Z,84.41
2023-04-25T17:57:22.825Z,83.17
2023-04-25T17:59:51.514Z,83.01
2023-04-25T18:02:20.045Z,82.50
2023-04-25T18:04:51.633Z,82.80
2023-04-25T18:07:19.934Z,81.88
2023-04-25T18:09:47.928Z,82.26
2023-04-25T18:12:16.882Z,82.91
2023-04-25T18:14:45.981Z,82.57
2023-04-25T18:17:15.043Z,82.96
2023-04-25T18:19:43.142Z,83.30
2023-04-25T18:22:12.968Z,83.90
2023-04-25T18:24:44.828Z,83.39
2023-04-25T18:27:12.907Z,84.10
2023-04-25T18:29:43.221Z,84.13
2023-04-25T18:32:11.525Z,84.28
2023-04-25T18:34:43.858Z,84.62
2023-04-25T18:37:14.376Z,84.24
2023-04-25T18:39:42.922Z,84.23
2023-04-25T18:42:12.361Z,85.32
2023-04-25T18:44:40.968Z,85.20
2023-04-25T18:47:19.096Z,84.59
2023-04-25T18:49:48.032Z,84.04
2023-04-25T18:52:16.611Z,83.86
2023-04-25T18:54:45.868Z,85.14
2023-04-25T18:57:18.017Z,85.27
2023-04-25T18:59:46.444Z,86.00
2023-04-25T19:02:16.259Z,85.67
2023-04-25T19:04:44.660Z,85.98
2023-04-25T19:07:12.982Z,85.15
2023-04-25T19:09:41.195Z,85.70
2023-04-25T19:12:10.115Z,85.28
2023-04-25T19:14:38.406Z,85.15
2023-04-25T19:17:06.761Z,84.87
2023-04-25T19:19:35.031Z,85.06
2023-04-25T19:22:03.281Z,84.16
2023-04-25T19:24:33.336Z,83.78
2023-04-25T19:27:03.126Z,84.23
2023-04-25T19:29:32.840Z,84.30
2023-04-25T19:32:03.407Z,85.71
2023-04-25T19:34:31.976Z,85.76
2023-04-25T19:37:00.841Z,85.75
2023-04-25T19:39:29.355Z,86.33
2023-04-25T19:41:57.800Z,86.65
2023-04-25T19:44:26.919Z,87.68
2023-04-25T19:46:55.088Z,87.36
2023-04-25T19:49:23.161Z,87.21
2023-04-25T19:51:51.825Z,87.62
2023-04-25T19:54:21.589Z,88.21
2023-04-25T19:56:51.031Z,88.37
2023-04-25T19:59:19.008Z,88.83
2023-04-25T20:01:47.388Z,89.00
2023-04-25T20:04:15.689Z,89.39
2023-04-25T20:06:44.308Z,90.05
2023-04-25T20:09:12.417Z,90.09
2023-04-25T20:11:40.464Z,90.49
2023-04-25T20:14:08.559Z,91.14
2023-04-25T20:16:37.694Z,91.75
2023-04-25T20:19:05.819Z,91.58
2023-04-25T20:21:34.616Z,91.66
2023-04-25T20:24:02.786Z,92.02
2023-04-25T20:26:34.172Z,92.50
2023-04-25T20:29:02.456Z,92.70
2023-04-25T20:31:31.879Z,92.99
2023-04-25T20:34:01.092Z,93.86
2023-04-25T20:36:29.893Z,94.32
2023-04-25T20:38:58.273Z,94.84
2023-04-25T20:41:26.826Z,95.17
2023-04-25T20:43:54.909Z,95.42
2023-04-25T20:46:23.218Z,95.41
2023-04-25T20:48:53.024Z,93.36
2023-04-25T20:51:21.694Z,92.79
2023-04-25T20:53:49.765Z,92.99
2023-04-25T20:56:19.278Z,93.49
2023-04-25T20:58:47.545Z,94.39
2023-04-25T21:01:15.556Z,94.86
2023-04-25T21:03:43.743Z,95.45
2023-04-25T21:06:14.045Z,95.44
2023-04-25T21:08:42.622Z,94.65
2023-04-25T21:11:11.947Z,94.55
2023-04-25T21:13:40.047Z,94.68
2023-04-25T21:16:08.208Z,94.19
2023-04-25T21:18:36.411Z,94.67
2023-04-25T21:21:05.417Z,94.48
2023-04-25T21:23:33.790Z,94.86
2023-04-25T21:26:02.056Z,95.26
2023-04-25T21:28:30.112Z,94.79
2023-04-25T21:30:58.344Z,95.61
2023-04-25T21:33:26.525Z,95.18
2023-04-25T21:35:54.850Z,94.96
2023-04-25T21:38:22.924Z,94.42
2023-04-25T21:40:51.109Z,94.39
2023-04-25T21:43:19.473Z,94.51
2023-04-25T21:46:14.634Z,95.32
2023-04-25T21:48:35.811Z,94.85
2023-04-25T21:51:04.613Z,94.50
2023-04-25T21:53:32.596Z,93.92
2023-04-25T21:56:01.086Z,92.84
2023-04-25T21:58:29.106Z,93.20
2023-04-25T22:00:57.177Z,92.55
2023-04-25T22:03:25.669Z,92.32
2023-04-25T22:05:53.895Z,92.41
2023-04-25T22:08:22.294Z,91.91
2023-04-25T22:10:50.490Z,92.05
2023-04-25T22:13:18.638Z,92.05
2023-04-25T22:15:47.783Z,91.98
2023-04-25T22:18:16.493Z,91.94
2023-04-25T22:20:45.023Z,92.09
2023-04-25T22:23:13.923Z,91.55
2023-04-25T22:25:42.546Z,91.84
2023-04-25T22:28:12.721Z,92.55
2023-04-25T22:30:40.895Z,92.19
2023-04-25T22:33:09.076Z,91.39
2023-04-25T22:35:37.299Z,92.14
2023-04-25T22:38:05.333Z,91.58
2023-04-25T22:40:33.652Z,90.97
2023-04-25T22:43:02.240Z,90.42
2023-04-25T22:45:30.334Z,90.78
2023-04-25T22:47:58.775Z,91.22
2023-04-25T22:50:27.161Z,91.71
2023-04-25T22:52:55.335Z,91.53
2023-04-25T22:55:23.854Z,91.64
2023-04-25T22:57:52.918Z,91.17
2023-04-25T23:00:22.063Z,91.15
2023-04-25T23:02:51.117Z,91.64
2023-04-25T23:05:19.261Z,91.84
2023-04-25T23:07:47.273Z,92.15
2023-04-25T23:10:15.435Z,92.32
2023-04-25T23:12:44.080Z,91.29
2023-04-25T23:15:13.740Z,92.18
2023-04-25T23:17:42.427Z,90.67
2023-04-25T23:20:12.177Z,89.51
2023-04-25T23:22:40.580Z,88.01
2023-04-25T23:25:09.696Z,86.54
2023-04-25T23:27:38.200Z,87.10
2023-04-25T23:30:07.155Z,87.01
2023-04-25T23:32:35.896Z,87.29
2023-04-25T23:35:05.353Z,87.78
2023-04-25T23:37:34.652Z,88.31
2023-04-25T23:40:10.196Z,88.17
2023-04-25T23:42:39.894Z,87.98
2023-04-25T23:45:09.535Z,88.22
2023-04-25T23:47:37.929Z,87.95
2023-04-25T23:50:08.113Z,87.49
2023-04-25T23:52:36.359Z,87.38
2023-04-25T23:55:05.780Z,87.16
2023-04-25T23:57:34.260Z,87.20
